MMPB/PBC METAR and TAF weather

Enter ICAO airport designator
Station Type Date Time Source
MMPB METAR 2019/02/17 15:43 UTC NOAA

MMPB 171543Z 00000KT 8SM FEW220 18/08 A3032 RMK 8/002 HZY


Station Type Date Time Source
MMPB Decoded METAR 2019/02/17 15:43 UTC NOAA

Puebla, Pue., Mexico (MMPB) 19-03N 098-10W
Feb 17, 2019 - 10:43 AM EST / 2019.02.17 1543 UTC
Wind: Calm:0
Visibility: 8 mile(s):0
Sky conditions: mostly clear
Temperature: 64 F (18 C)
Dew Point: 46 F (8 C)
Relative Humidity: 51%
Pressure (altimeter): 30.32 in. Hg (1026 hPa)
ob: MMPB 171543Z 00000KT 8SM FEW220 18/08 A3032 RMK 8/002 HZY
cycle: 15

Station Type Date Time Source
MMPB TAF 2019/02/17 06:46 UTC NOAA

TAF MMPB 170439Z 1706/1806 14005KT P6SM SKC
FM171800 16014KT P6SM SCT250
FM180500 14005KT P6SM SKC


Example: see airport list